Time;durP1;ratioP1;P1;durP2;ratioP2;P2;SDS_P1;SDS_P2;PMS_P1;PMS_P2;Temp;Humidity;BMP_temperature;BMP_pressure;BME280_temperature;BME280_humidity;BME280_pressure;Samples;Min_cycle;Max_cycle;Signal;HPM_P1;HPM_P2
2023/11/22 00:00:21;;;;;;;21.00;12.03;;;5.00;99.90;;;;;;5042593;28;20093;-84
2023/11/22 00:02:47;;;;;;;18.90;11.43;;;5.00;99.90;;;;;;5041425;28;20040;-84
2023/11/22 00:05:13;;;;;;;21.43;11.07;;;4.90;99.90;;;;;;5041922;28;20089;-84
2023/11/22 00:07:38;;;;;;;17.60;10.03;;;4.90;99.90;;;;;;5041485;28;20018;-85
2023/11/22 00:10:05;;;;;;;20.30;12.23;;;4.90;99.90;;;;;;5041033;28;20029;-84
2023/11/22 00:12:38;;;;;;;19.27;11.20;;;4.90;99.90;;;;;;5042303;28;20561;-84
2023/11/22 00:15:07;;;;;;;20.13;11.50;;;4.90;99.90;;;;;;5040657;28;20041;-85
2023/11/22 00:17:34;;;;;;;18.20;11.97;;;4.90;99.90;;;;;;5042295;28;20026;-85
2023/11/22 00:20:02;;;;;;;21.80;12.00;;;4.90;99.90;;;;;;5041673;28;20049;-84
2023/11/22 00:22:28;;;;;;;20.17;11.73;;;4.80;99.90;;;;;;5041029;28;20029;-84
2023/11/22 00:24:54;;;;;;;20.13;12.03;;;4.90;99.90;;;;;;5041642;28;20045;-84
2023/11/22 00:27:19;;;;;;;19.77;11.60;;;4.90;99.90;;;;;;5041952;28;20033;-84
2023/11/22 00:29:46;;;;;;;16.97;10.77;;;4.80;99.90;;;;;;5043558;28;20025;-84
2023/11/22 00:32:12;;;;;;;19.33;11.07;;;4.80;99.90;;;;;;5040302;28;20459;-83
2023/11/22 00:34:37;;;;;;;19.67;11.03;;;4.80;99.90;;;;;;5042003;28;20052;-84
2023/11/22 00:37:03;;;;;;;18.70;11.47;;;4.80;99.90;;;;;;5040657;28;20021;-84
2023/11/22 00:39:29;;;;;;;22.67;12.57;;;4.80;99.90;;;;;;5041301;28;20560;-83
2023/11/22 00:41:55;;;;;;;22.87;13.07;;;4.70;99.90;;;;;;5041745;28;20459;-84
2023/11/22 00:44:21;;;;;;;19.97;11.50;;;4.90;99.90;;;;;;5040248;28;20052;-83
2023/11/22 00:46:47;;;;;;;19.77;12.20;;;4.80;99.90;;;;;;5041644;28;20581;-83
2023/11/22 00:49:12;;;;;;;22.10;12.43;;;4.80;99.90;;;;;;5040746;28;20026;-83
2023/11/22 00:51:39;;;;;;;26.00;11.87;;;4.80;99.90;;;;;;5042488;28;20021;-83
2023/11/22 00:54:04;;;;;;;21.43;11.10;;;4.80;99.90;;;;;;5041523;28;20026;-83
2023/11/22 00:56:30;;;;;;;21.33;13.10;;;4.80;99.90;;;;;;5042311;28;20025;-83
2023/11/22 00:58:59;;;;;;;20.73;12.00;;;4.80;99.90;;;;;;5042501;28;20030;-83
2023/11/22 01:01:25;;;;;;;20.90;11.57;;;4.70;99.90;;;;;;5040938;28;20029;-84
2023/11/22 01:03:51;;;;;;;21.53;11.93;;;4.80;99.90;;;;;;5041713;28;20018;-83
2023/11/22 01:06:20;;;;;;;19.20;11.27;;;4.70;99.90;;;;;;5039553;28;20102;-83
2023/11/22 01:08:47;;;;;;;19.83;11.63;;;4.70;99.90;;;;;;5041537;28;20021;-84
2023/11/22 01:11:13;;;;;;;18.80;10.70;;;4.70;99.90;;;;;;5039774;28;20029;-83
2023/11/22 01:13:43;;;;;;;18.23;10.60;;;4.70;99.90;;;;;;5040667;28;20028;-84
2023/11/22 01:16:09;;;;;;;19.63;11.27;;;4.70;99.90;;;;;;5040899;28;20013;-83
2023/11/22 01:18:35;;;;;;;18.93;10.93;;;4.70;99.90;;;;;;5039618;28;20468;-83
2023/11/22 01:21:03;;;;;;;18.47;10.63;;;4.70;99.90;;;;;;5040490;28;20021;-83
2023/11/22 01:23:28;;;;;;;19.73;11.13;;;4.60;99.90;;;;;;5041829;28;20026;-83
2023/11/22 01:25:54;;;;;;;21.07;11.63;;;4.70;99.90;;;;;;5044395;28;20043;-83
2023/11/22 01:28:20;;;;;;;19.17;11.50;;;4.70;99.90;;;;;;5042663;28;20107;-83
2023/11/22 01:30:45;;;;;;;18.10;10.73;;;4.70;99.90;;;;;;5044062;28;20055;-83
2023/11/22 01:33:12;;;;;;;19.57;11.17;;;4.60;99.90;;;;;;5043931;28;20032;-83
2023/11/22 01:35:38;;;;;;;19.87;10.60;;;4.70;99.90;;;;;;5042648;28;20384;-83
2023/11/22 01:38:04;;;;;;;20.97;11.10;;;4.60;99.90;;;;;;5044231;28;20017;-83
2023/11/22 01:40:31;;;;;;;18.70;9.57;;;4.70;99.90;;;;;;5042626;28;20017;-83
2023/11/22 01:43:02;;;;;;;18.00;9.80;;;4.60;99.90;;;;;;5044167;28;20029;-84
2023/11/22 01:45:28;;;;;;;20.70;10.87;;;4.60;99.90;;;;;;5043049;28;20505;-83
2023/11/22 01:47:55;;;;;;;18.47;10.53;;;4.60;99.90;;;;;;5043036;28;20151;-83
2023/11/22 01:50:20;;;;;;;16.10;9.30;;;4.60;99.90;;;;;;5061918;28;20088;-83
2023/11/22 01:52:47;;;;;;;16.50;9.70;;;4.50;99.90;;;;;;5042681;28;20064;-84
2023/11/22 01:55:13;;;;;;;17.70;10.10;;;4.50;99.90;;;;;;5044394;28;20406;-84
2023/11/22 01:57:39;;;;;;;16.03;8.93;;;4.50;99.90;;;;;;5060072;28;20051;-84
2023/11/22 02:00:07;;;;;;;17.97;10.40;;;4.50;99.90;;;;;;5044180;28;20021;-84
2023/11/22 02:02:34;;;;;;;21.30;9.47;;;4.40;99.90;;;;;;5042769;28;20060;-84
2023/11/22 02:05:00;;;;;;;19.40;11.37;;;4.40;99.90;;;;;;5043481;28;20029;-84
2023/11/22 02:07:29;;;;;;;18.27;10.07;;;4.40;99.90;;;;;;5043368;28;20036;-83
2023/11/22 02:09:57;;;;;;;17.57;9.60;;;4.40;99.90;;;;;;5042197;28;20025;-83
2023/11/22 02:12:23;;;;;;;18.33;9.73;;;4.30;99.90;;;;;;5043983;28;20017;-83
2023/11/22 02:14:49;;;;;;;18.33;9.80;;;4.30;99.90;;;;;;5042138;28;20382;-83
2023/11/22 02:17:16;;;;;;;15.63;9.07;;;4.30;99.90;;;;;;5043833;28;20066;-83
2023/11/22 02:19:43;;;;;;;20.03;10.73;;;4.20;99.90;;;;;;5060730;28;20048;-83
2023/11/22 02:22:08;;;;;;;19.57;10.57;;;4.20;99.90;;;;;;5043187;28;20025;-83
2023/11/22 02:24:34;;;;;;;18.87;9.77;;;4.20;99.90;;;;;;5042855;28;20073;-83
2023/11/22 02:27:00;;;;;;;15.97;9.23;;;4.10;99.90;;;;;;5042732;28;20017;-83
2023/11/22 02:29:27;;;;;;;18.30;9.97;;;4.10;99.90;;;;;;5061443;28;20091;-83
2023/11/22 02:31:52;;;;;;;17.63;9.07;;;4.10;99.90;;;;;;5044482;28;20103;-82
2023/11/22 02:34:19;;;;;;;18.57;10.17;;;4.10;99.90;;;;;;5047559;28;20021;-82
2023/11/22 02:36:45;;;;;;;18.13;9.90;;;4.10;99.90;;;;;;5046006;28;20017;-83
2023/11/22 02:39:10;;;;;;;19.00;10.40;;;4.00;99.90;;;;;;5046820;28;20044;-83
2023/11/22 02:41:36;;;;;;;18.43;10.60;;;4.00;99.90;;;;;;5046707;28;20028;-82
2023/11/22 02:44:02;;;;;;;22.20;10.83;;;4.00;99.90;;;;;;5046207;28;20379;-83
2023/11/22 02:46:30;;;;;;;19.93;10.57;;;4.00;99.90;;;;;;5046995;28;20033;-83
2023/11/22 02:48:56;;;;;;;18.77;10.23;;;3.90;99.90;;;;;;5045445;28;20033;-83
2023/11/22 02:51:22;;;;;;;20.50;9.60;;;3.90;99.90;;;;;;5047130;28;20017;-82
2023/11/22 02:53:49;;;;;;;17.70;9.73;;;3.90;99.90;;;;;;5045377;28;20020;-84
2023/11/22 02:56:15;;;;;;;21.33;10.90;;;3.90;99.90;;;;;;5065020;28;20017;-85
2023/11/22 02:58:41;;;;;;;18.67;10.13;;;3.80;99.90;;;;;;5046549;28;20041;-84
2023/11/22 03:01:10;;;;;;;19.90;10.00;;;3.90;99.90;;;;;;5045512;28;20296;-85
2023/11/22 03:03:36;;;;;;;20.43;10.83;;;3.80;99.90;;;;;;5046953;28;20037;-84
2023/11/22 03:06:01;;;;;;;21.73;10.63;;;3.80;99.90;;;;;;5045255;28;20131;-85
2023/11/22 03:08:27;;;;;;;18.53;10.40;;;3.80;99.90;;;;;;5046512;28;20450;-84
2023/11/22 03:10:53;;;;;;;19.80;10.63;;;3.80;99.90;;;;;;5045195;28;20025;-84
2023/11/22 03:13:19;;;;;;;19.77;10.37;;;3.70;99.90;;;;;;5046509;28;20378;-84
2023/11/22 03:15:45;;;;;;;23.43;11.43;;;3.70;99.90;;;;;;5045820;28;20085;-84
2023/11/22 03:18:11;;;;;;;19.47;10.23;;;3.70;99.90;;;;;;5046115;28;20029;-84
2023/11/22 03:20:37;;;;;;;23.07;10.83;;;3.70;99.90;;;;;;5046624;28;20021;-83
2023/11/22 03:23:04;;;;;;;20.70;10.30;;;3.60;99.90;;;;;;5044834;28;20021;-83
2023/11/22 03:25:30;;;;;;;22.57;12.00;;;3.70;99.90;;;;;;5046237;28;20044;-84
2023/11/22 03:27:56;;;;;;;19.30;10.33;;;3.70;99.90;;;;;;5044467;28;20089;-84
2023/11/22 03:30:21;;;;;;;19.23;10.53;;;3.60;99.90;;;;;;5046118;28;20052;-83
2023/11/22 03:32:48;;;;;;;19.17;9.83;;;3.60;99.90;;;;;;5045340;28;20024;-84
2023/11/22 03:35:13;;;;;;;21.27;11.67;;;3.60;99.90;;;;;;5045612;28;20068;-83
2023/11/22 03:37:39;;;;;;;24.23;10.93;;;3.40;99.90;;;;;;5045964;28;20017;-84
2023/11/22 03:40:05;;;;;;;20.03;10.87;;;3.50;99.90;;;;;;5044809;28;20017;-84
2023/11/22 03:42:31;;;;;;;18.77;10.33;;;3.40;99.90;;;;;;5045370;28;20498;-86
2023/11/22 03:44:59;;;;;;;22.40;11.40;;;3.40;99.90;;;;;;5043912;28;20029;-84
2023/11/22 03:47:25;;;;;;;22.50;11.10;;;3.40;99.90;;;;;;5064206;28;20036;-84
2023/11/22 03:49:50;;;;;;;22.00;10.30;;;3.40;99.90;;;;;;5045214;28;20029;-82
2023/11/22 03:52:16;;;;;;;21.90;10.77;;;3.40;99.90;;;;;;5045420;28;20064;-83
2023/11/22 03:54:42;;;;;;;21.33;11.87;;;3.40;99.90;;;;;;5045960;28;20021;-83
2023/11/22 03:57:08;;;;;;;22.63;10.57;;;3.30;99.90;;;;;;5062597;28;20025;-83
2023/11/22 03:59:35;;;;;;;24.53;12.00;;;3.40;99.90;;;;;;5045256;28;20509;-83
2023/11/22 04:02:00;;;;;;;21.63;11.23;;;3.30;99.90;;;;;;5043675;28;20021;-83
2023/11/22 04:04:26;;;;;;;21.70;10.40;;;3.30;99.90;;;;;;5045914;28;20115;-83
2023/11/22 04:06:52;;;;;;;19.60;10.10;;;3.30;99.90;;;;;;5044717;28;20013;-83
2023/11/22 04:09:19;;;;;;;22.07;9.60;;;3.20;99.90;;;;;;5045129;28;20605;-83
2023/11/22 04:11:46;;;;;;;20.53;10.47;;;3.20;99.90;;;;;;5045398;28;20387;-83
2023/11/22 04:14:12;;;;;;;21.23;10.23;;;3.20;99.90;;;;;;5044060;28;20025;-83
2023/11/22 04:16:37;;;;;;;22.17;10.80;;;3.20;99.90;;;;;;5063601;28;20162;-83
2023/11/22 04:19:03;;;;;;;21.97;10.83;;;3.20;99.90;;;;;;5043716;28;20036;-83
2023/11/22 04:21:29;;;;;;;21.87;10.77;;;3.10;99.90;;;;;;5046045;28;20305;-81
2023/11/22 04:23:54;;;;;;;23.60;10.40;;;3.10;99.90;;;;;;5045020;28;20087;-81
2023/11/22 04:26:20;;;;;;;22.70;11.00;;;3.10;99.90;;;;;;5045777;28;20612;-83
2023/11/22 04:28:46;;;;;;;22.77;11.30;;;3.10;99.90;;;;;;5045194;28;20482;-82
2023/11/22 04:31:12;;;;;;;22.03;10.97;;;3.10;99.90;;;;;;5047627;28;20028;-82
2023/11/22 04:33:38;;;;;;;19.47;9.40;;;3.10;99.90;;;;;;5047151;28;20025;-83
2023/11/22 04:36:04;;;;;;;23.33;10.53;;;3.10;99.90;;;;;;5043639;28;20449;-82
2023/11/22 04:38:30;;;;;;;21.40;10.30;;;3.00;99.90;;;;;;5045136;28;20047;-82
2023/11/22 04:40:56;;;;;;;20.97;10.40;;;3.00;99.90;;;;;;5043788;28;20021;-82
2023/11/22 04:43:23;;;;;;;20.50;9.97;;;3.00;99.90;;;;;;5044745;28;20024;-83
2023/11/22 04:45:49;;;;;;;20.27;9.33;;;3.00;99.90;;;;;;5044370;28;20040;-82
2023/11/22 04:48:15;;;;;;;18.17;9.07;;;3.00;99.90;;;;;;5061768;28;20075;-82
2023/11/22 04:50:42;;;;;;;20.43;10.07;;;3.00;99.90;;;;;;5044740;28;20430;-81
2023/11/22 04:53:10;;;;;;;18.80;9.97;;;2.90;99.90;;;;;;5043194;28;20021;-82
2023/11/22 04:55:36;;;;;;;20.17;10.03;;;2.90;99.90;;;;;;5044912;28;20175;-83
2023/11/22 04:58:02;;;;;;;25.17;11.70;;;2.90;99.90;;;;;;5042956;28;20449;-82
2023/11/22 05:00:28;;;;;;;21.50;10.27;;;2.90;99.90;;;;;;5044283;28;20025;-82
2023/11/22 05:02:54;;;;;;;21.87;10.63;;;2.90;99.90;;;;;;5044316;28;20055;-83
2023/11/22 05:05:20;;;;;;;20.97;10.17;;;2.80;99.90;;;;;;5043495;28;20033;-83
2023/11/22 05:07:47;;;;;;;21.40;10.60;;;2.80;99.90;;;;;;5044476;28;20040;-83
2023/11/22 05:10:13;;;;;;;20.20;10.60;;;2.80;99.90;;;;;;5042861;28;20013;-83
2023/11/22 05:12:39;;;;;;;21.57;9.73;;;2.80;99.90;;;;;;5044766;28;20747;-83
2023/11/22 05:15:06;;;;;;;22.07;10.40;;;2.70;99.90;;;;;;5043010;28;20037;-82
2023/11/22 05:17:32;;;;;;;22.33;10.50;;;2.70;99.90;;;;;;5044021;28;20024;-82
2023/11/22 05:19:58;;;;;;;26.27;11.37;;;2.70;99.90;;;;;;5061759;28;20021;-82
2023/11/22 05:22:24;;;;;;;22.57;11.20;;;2.70;99.90;;;;;;5043361;28;20017;-83
2023/11/22 05:24:49;;;;;;;21.53;10.17;;;2.70;99.90;;;;;;5043773;28;20053;-83
2023/11/22 05:27:15;;;;;;;20.87;10.83;;;2.70;99.90;;;;;;5042527;28;20096;-81
2023/11/22 05:29:41;;;;;;;25.13;10.73;;;2.70;99.90;;;;;;5044165;28;20029;-81
2023/11/22 05:32:06;;;;;;;20.43;9.80;;;2.70;99.90;;;;;;5042448;28;20029;-81
2023/11/22 05:34:32;;;;;;;23.60;11.10;;;2.60;99.90;;;;;;5044294;28;20577;-81
2023/11/22 05:36:58;;;;;;;20.27;10.10;;;2.70;99.90;;;;;;5043441;28;20028;-81
2023/11/22 05:39:24;;;;;;;19.20;10.23;;;2.70;99.90;;;;;;5043178;28;20021;-81
2023/11/22 05:41:53;;;;;;;23.43;11.30;;;2.70;99.90;;;;;;5043681;28;20055;-82
2023/11/22 05:44:19;;;;;;;27.87;11.70;;;2.70;99.90;;;;;;5042738;28;20032;-82
2023/11/22 05:46:45;;;;;;;22.73;11.17;;;2.70;99.90;;;;;;5044182;28;20033;-82
2023/11/22 05:49:11;;;;;;;23.13;12.07;;;2.80;99.90;;;;;;5042482;28;20398;-81
2023/11/22 05:51:37;;;;;;;29.77;12.63;;;2.80;99.90;;;;;;5043965;28;20106;-82
2023/11/22 05:54:03;;;;;;;26.47;11.23;;;2.80;99.90;;;;;;5042902;28;20025;-81
2023/11/22 05:56:29;;;;;;;26.37;12.27;;;2.80;99.90;;;;;;5043349;28;20024;-81
2023/11/22 05:58:55;;;;;;;23.00;11.17;;;2.80;99.90;;;;;;5043854;28;20033;-81
2023/11/22 06:01:21;;;;;;;23.20;11.53;;;2.80;99.90;;;;;;5042530;28;20111;-81
2023/11/22 06:03:46;;;;;;;22.23;11.37;;;2.90;99.90;;;;;;5043831;28;20482;-81
2023/11/22 06:06:14;;;;;;;26.00;11.47;;;2.90;99.90;;;;;;5043836;28;20033;-83
2023/11/22 06:08:40;;;;;;;23.60;11.23;;;2.90;99.90;;;;;;5065933;28;20021;-82
2023/11/22 06:11:05;;;;;;;21.93;11.47;;;2.90;99.90;;;;;;5046822;28;20028;-81
2023/11/22 06:13:31;;;;;;;24.03;11.93;;;2.90;99.90;;;;;;5047398;28;20017;-82
2023/11/22 06:15:57;;;;;;;24.40;11.40;;;3.00;99.90;;;;;;5047289;28;20039;-81
2023/11/22 06:18:29;;;;;;;25.30;12.13;;;3.00;99.90;;;;;;5046523;28;20108;-82
2023/11/22 06:20:56;;;;;;;23.00;11.90;;;3.00;99.90;;;;;;5047759;28;20025;-82
2023/11/22 06:23:21;;;;;;;22.43;11.67;;;3.00;99.90;;;;;;5063535;28;20047;-82
2023/11/22 06:25:47;;;;;;;25.33;11.50;;;3.00;99.90;;;;;;5047580;28;20123;-82
2023/11/22 06:28:13;;;;;;;23.33;11.73;;;3.00;99.90;;;;;;5045982;28;20025;-82
2023/11/22 06:30:38;;;;;;;22.00;11.53;;;3.00;99.90;;;;;;5046838;28;20033;-82
2023/11/22 06:33:04;;;;;;;24.43;11.33;;;3.00;99.90;;;;;;5047165;28;20027;-83
2023/11/22 06:35:30;;;;;;;25.60;12.10;;;3.10;99.90;;;;;;5046824;28;20076;-82
2023/11/22 06:37:56;;;;;;;19.77;9.93;;;3.10;99.90;;;;;;5047078;28;20069;-84
2023/11/22 06:40:22;;;;;;;21.73;11.60;;;3.20;99.90;;;;;;5050970;28;20555;-83
2023/11/22 06:42:48;;;;;;;21.37;10.73;;;3.10;99.90;;;;;;5066841;28;20044;-85
2023/11/22 06:45:14;;;;;;;23.33;11.27;;;3.10;99.90;;;;;;5065823;28;20083;-85
2023/11/22 06:47:41;;;;;;;24.77;11.60;;;3.20;99.90;;;;;;5066826;28;20035;-82
2023/11/22 06:50:10;;;;;;;25.17;12.40;;;3.20;99.90;;;;;;5084868;28;20030;-81
2023/11/22 06:52:38;;;;;;;24.37;12.27;;;3.20;99.90;;;;;;5065457;28;20059;-83
2023/11/22 06:55:09;;;;;;;24.10;11.87;;;3.20;99.90;;;;;;5066868;28;20047;-83
2023/11/22 06:57:38;;;;;;;22.07;11.87;;;3.20;99.90;;;;;;5046464;28;20501;-82
2023/11/22 07:00:05;;;;;;;25.40;11.17;;;3.30;99.90;;;;;;5030273;28;20029;-83
2023/11/22 07:02:32;;;;;;;24.60;11.90;;;3.30;99.90;;;;;;5063564;28;20032;-82
2023/11/22 07:04:59;;;;;;;24.17;12.33;;;3.40;99.90;;;;;;5046019;28;20033;-84
2023/11/22 07:07:26;;;;;;;24.10;12.33;;;3.30;99.90;;;;;;5064239;28;20044;-83
2023/11/22 07:09:51;;;;;;;22.87;11.63;;;3.40;99.90;;;;;;5045080;28;20025;-84
2023/11/22 07:12:19;;;;;;;24.50;12.23;;;3.40;99.90;;;;;;5046459;28;20631;-83
2023/11/22 07:14:44;;;;;;;21.93;12.00;;;3.50;99.90;;;;;;5044773;28;20031;-83
2023/11/22 07:17:10;;;;;;;23.50;11.83;;;3.50;99.90;;;;;;5045090;28;20092;-83
2023/11/22 07:19:37;;;;;;;23.87;12.87;;;3.60;99.90;;;;;;5045098;28;20013;-82
2023/11/22 07:22:15;;;;;;;23.10;11.63;;;3.60;99.90;;;;;;5063745;28;20533;-81
2023/11/22 07:24:45;;;;;;;23.50;12.13;;;3.60;99.90;;;;;;5045366;28;20045;-80
2023/11/22 07:27:14;;;;;;;28.00;12.83;;;3.60;99.90;;;;;;5044789;28;20116;-81
2023/11/22 07:29:41;;;;;;;23.80;12.73;;;3.70;99.90;;;;;;5047645;28;20028;-81
2023/11/22 07:32:08;;;;;;;22.10;12.53;;;3.70;99.90;;;;;;5064391;28;20036;-81
2023/11/22 07:34:39;;;;;;;21.87;12.20;;;3.60;99.90;;;;;;5065664;28;20131;-81
2023/11/22 07:37:07;;;;;;;27.93;13.40;;;3.80;99.90;;;;;;5065173;28;20066;-81
2023/11/22 07:39:35;;;;;;;26.17;13.00;;;3.80;99.90;;;;;;5065265;28;20032;-81
2023/11/22 07:42:01;;;;;;;24.23;12.33;;;3.90;99.90;;;;;;5061481;28;20024;-81
2023/11/22 07:44:27;;;;;;;23.77;12.13;;;3.90;99.90;;;;;;5053695;28;20052;-81
2023/11/22 07:46:53;;;;;;;23.23;12.37;;;3.90;99.90;;;;;;5055680;28;20033;-81
2023/11/22 07:49:19;;;;;;;22.67;13.27;;;4.00;99.90;;;;;;5054626;28;20087;-81
2023/11/22 07:51:45;;;;;;;27.73;13.43;;;4.10;99.90;;;;;;5053928;28;20052;-81
2023/11/22 07:54:17;;;;;;;25.30;12.87;;;4.10;99.90;;;;;;5054681;28;20031;-81
2023/11/22 07:56:43;;;;;;;23.10;12.53;;;4.20;99.90;;;;;;5073365;28;20036;-81
2023/11/22 07:59:10;;;;;;;21.73;12.27;;;4.20;99.90;;;;;;5053831;28;20013;-81
2023/11/22 08:01:36;;;;;;;23.57;12.10;;;4.30;99.90;;;;;;5053576;28;20088;-81
2023/11/22 08:04:02;;;;;;;22.90;12.20;;;4.30;99.90;;;;;;5055614;28;20009;-81
2023/11/22 08:06:28;;;;;;;21.33;11.73;;;4.30;99.90;;;;;;5053302;28;20028;-81
2023/11/22 08:08:53;;;;;;;24.63;12.90;;;4.40;99.90;;;;;;5055616;28;20027;-81
2023/11/22 08:11:20;;;;;;;22.73;11.93;;;4.50;99.90;;;;;;5053150;28;20013;-81
2023/11/22 08:13:47;;;;;;;22.77;11.57;;;4.50;99.90;;;;;;5051712;28;20123;-81
2023/11/22 08:16:13;;;;;;;23.47;12.87;;;4.60;99.90;;;;;;5055586;28;20048;-82
2023/11/22 08:18:42;;;;;;;21.37;12.73;;;4.70;99.90;;;;;;5052740;28;20021;-81
2023/11/22 08:21:08;;;;;;;22.07;13.00;;;4.70;99.90;;;;;;5054539;28;20078;-82
2023/11/22 08:23:34;;;;;;;24.23;13.83;;;4.80;99.90;;;;;;5054029;28;20012;-82
2023/11/22 08:26:00;;;;;;;20.27;12.73;;;4.80;99.90;;;;;;5053874;28;20036;-81
2023/11/22 08:28:26;;;;;;;23.47;13.70;;;4.90;99.90;;;;;;5056230;28;20021;-81
2023/11/22 08:30:51;;;;;;;22.03;12.40;;;4.90;99.90;;;;;;5082350;28;20095;-82
2023/11/22 08:33:17;;;;;;;24.63;13.67;;;5.00;99.90;;;;;;5064402;28;20016;-81
2023/11/22 08:35:43;;;;;;;23.83;13.03;;;5.10;99.90;;;;;;5063847;28;20027;-82
2023/11/22 08:38:09;;;;;;;25.10;14.57;;;5.10;99.90;;;;;;5065088;28;20039;-81
2023/11/22 08:40:37;;;;;;;23.87;14.30;;;5.10;99.90;;;;;;5063205;28;20024;-82
2023/11/22 08:43:05;;;;;;;23.17;12.53;;;5.20;99.90;;;;;;5065038;28;20021;-82
2023/11/22 08:45:31;;;;;;;21.03;13.07;;;5.20;99.90;;;;;;5063997;28;20052;-81
2023/11/22 08:47:57;;;;;;;28.63;14.53;;;5.30;99.90;;;;;;5063797;28;20035;-82
2023/11/22 08:50:23;;;;;;;22.77;13.00;;;5.40;99.90;;;;;;5064639;28;20478;-81
2023/11/22 08:52:52;;;;;;;24.90;13.83;;;5.40;99.90;;;;;;5063426;28;20024;-82
2023/11/22 08:55:21;;;;;;;23.60;12.93;;;5.50;99.90;;;;;;5064517;28;20017;-85
2023/11/22 08:57:50;;;;;;;28.63;16.00;;;5.50;99.90;;;;;;5062888;28;20054;-82
2023/11/22 09:45:38;;;;;;;17.03;10.67;;;6.60;99.90;;;;;;5034945;28;20045;-82
2023/11/22 09:48:22;;;;;;;18.80;11.63;;;6.80;99.90;;;;;;5019707;28;20128;-82
2023/11/22 09:50:50;;;;;;;18.13;11.33;;;7.00;99.90;;;;;;5022035;28;20022;-81
2023/11/22 09:53:25;;;;;;;19.87;12.30;;;7.10;99.90;;;;;;5020835;28;20026;-81
2023/11/22 11:18:40;;;;;;;14.47;9.27;;;9.20;99.90;;;;;;5062148;28;20052;-81
2023/11/22 11:21:13;;;;;;;14.93;9.10;;;9.20;99.90;;;;;;5046209;28;20017;-81
2023/11/22 11:23:44;;;;;;;15.85;8.82;;;9.20;99.90;;;;;;5063991;28;20460;-81
2023/11/22 11:26:22;;;;;;;13.88;8.68;;;9.40;99.90;;;;;;5044154;28;20055;-81
2023/11/22 11:28:50;;;;;;;15.18;8.15;;;9.40;99.90;;;;;;5041858;28;20099;-82
2023/11/22 11:31:21;;;;;;;15.30;9.52;;;9.50;99.90;;;;;;5065322;28;20084;-82
2023/11/22 11:33:56;;;;;;;16.35;10.45;;;9.70;99.90;;;;;;5045681;28;20024;-82
2023/11/22 11:36:31;;;;;;;13.18;7.88;;;9.80;99.90;;;;;;5063369;28;20021;-84
2023/11/22 11:39:00;;;;;;;15.00;9.52;;;10.00;99.90;;;;;;5079310;28;20048;-82
2023/11/22 11:41:39;;;;;;;18.05;11.20;;;10.20;99.90;;;;;;5079188;28;20458;-82
2023/11/22 11:44:11;;;;;;;16.85;10.70;;;10.20;98.80;;;;;;5060102;28;20028;-82
2023/11/22 11:46:38;;;;;;;18.20;11.38;;;10.10;97.60;;;;;;5065975;28;20074;-83
2023/11/22 11:49:12;;;;;;;18.67;11.05;;;10.00;96.80;;;;;;5046572;28;20028;-82
2023/11/22 11:51:43;;;;;;;14.45;9.88;;;9.80;96.70;;;;;;5046804;28;20087;-83
2023/11/22 11:54:11;;;;;;;20.35;11.90;;;9.80;96.90;;;;;;5045834;28;20023;-82
2023/11/22 11:56:37;;;;;;;19.95;12.18;;;9.70;96.70;;;;;;5046702;28;20017;-81
2023/11/22 11:59:03;;;;;;;18.42;11.93;;;9.70;96.10;;;;;;5045284;28;20355;-82
2023/11/22 12:01:32;;;;;;;22.25;13.80;;;9.60;95.70;;;;;;5046400;28;20028;-82
2023/11/22 12:04:00;;;;;;;19.97;12.30;;;9.60;95.90;;;;;;5044763;28;20417;-82
2023/11/22 12:06:26;;;;;;;19.83;13.37;;;9.60;95.60;;;;;;5064143;28;20037;-82
2023/11/22 12:08:52;;;;;;;21.60;12.57;;;9.50;94.90;;;;;;5080376;28;20074;-83
2023/11/22 12:11:19;;;;;;;24.77;15.40;;;9.50;94.60;;;;;;5063462;28;20013;-82
2023/11/22 12:13:50;;;;;;;21.27;13.43;;;9.40;94.00;;;;;;5065608;28;20039;-81
2023/11/22 12:16:16;;;;;;;23.93;14.10;;;9.40;94.30;;;;;;5044130;28;20316;-81
2023/11/22 12:18:44;;;;;;;24.67;15.17;;;9.30;93.40;;;;;;5047397;28;20072;-81
2023/11/22 12:21:13;;;;;;;24.48;13.90;;;9.40;93.40;;;;;;5046558;28;20021;-81
2023/11/22 12:23:39;;;;;;;21.38;13.35;;;9.60;94.40;;;;;;5065786;28;20025;-81
2023/11/22 12:26:09;;;;;;;23.35;13.38;;;9.80;94.80;;;;;;5044968;28;20560;-81
2023/11/22 12:28:35;;;;;;;19.58;12.38;;;10.00;95.10;;;;;;5044305;28;20032;-82
2023/11/22 12:31:11;;;;;;;23.30;13.43;;;10.30;95.50;;;;;;5046849;28;20025;-82
2023/11/22 12:33:39;;;;;;;19.38;12.75;;;10.60;95.50;;;;;;5025058;28;20030;-82
2023/11/22 12:36:05;;;;;;;18.95;12.38;;;10.80;95.30;;;;;;5032730;28;20025;-82
2023/11/22 12:38:31;;;;;;;20.50;12.13;;;11.10;94.70;;;;;;5063563;28;20033;-82
2023/11/22 12:40:58;;;;;;;17.90;11.90;;;11.30;93.80;;;;;;5045052;28;20462;-82
2023/11/22 12:43:26;;;;;;;19.60;12.30;;;11.50;93.90;;;;;;5046096;28;20032;-82
2023/11/22 12:46:03;;;;;;;18.10;12.02;;;11.60;93.40;;;;;;5044560;28;20087;-82
2023/11/22 12:48:29;;;;;;;19.58;13.07;;;11.80;92.40;;;;;;5046226;28;20024;-82
2023/11/22 12:50:56;;;;;;;21.67;13.07;;;11.80;91.60;;;;;;5044308;28;20060;-82
2023/11/22 12:53:22;;;;;;;18.15;11.95;;;11.80;90.60;;;;;;5045621;28;20033;-83
2023/11/22 12:55:49;;;;;;;19.42;12.73;;;11.70;90.30;;;;;;5045438;28;20160;-82
2023/11/22 12:58:33;;;;;;;17.40;10.93;;;11.80;90.50;;;;;;5044024;28;20094;-82
2023/11/22 13:01:00;;;;;;;19.20;11.35;;;11.90;90.80;;;;;;5076560;28;20033;-82
2023/11/22 13:03:26;;;;;;;19.58;11.70;;;12.10;90.80;;;;;;5043869;28;20021;-81
2023/11/22 13:05:53;;;;;;;17.92;11.85;;;12.30;90.70;;;;;;5045471;28;20075;-82
2023/11/22 13:08:19;;;;;;;17.92;11.90;;;12.50;90.40;;;;;;5070196;28;20036;-83
2023/11/22 13:10:53;;;;;;;18.85;12.73;;;12.70;89.70;;;;;;5044722;28;20040;-82
2023/11/22 13:13:23;;;;;;;20.38;12.68;;;12.70;88.00;;;;;;5046051;28;20136;-82
2023/11/22 13:15:49;;;;;;;17.15;11.65;;;12.60;86.30;;;;;;5043205;28;20474;-82
2023/11/22 13:18:16;;;;;;;18.77;12.07;;;12.30;85.70;;;;;;5043665;28;20044;-83
2023/11/22 13:20:42;;;;;;;21.52;12.60;;;12.20;85.40;;;;;;5061181;28;20039;-82
2023/11/22 13:23:09;;;;;;;21.73;14.10;;;11.80;84.90;;;;;;5052492;28;20020;-83
2023/11/22 13:25:34;;;;;;;21.88;12.82;;;11.60;84.70;;;;;;5050802;28;20040;-83
2023/11/22 13:28:00;;;;;;;18.83;11.85;;;11.30;84.30;;;;;;5044405;28;20102;-82
2023/11/22 13:30:26;;;;;;;22.25;12.90;;;11.00;83.90;;;;;;5048824;28;20025;-82
2023/11/22 13:32:56;;;;;;;24.48;14.05;;;10.70;84.50;;;;;;5063982;28;20484;-83
2023/11/22 13:35:22;;;;;;;21.55;12.70;;;10.50;84.50;;;;;;5054132;28;20033;-82
2023/11/22 13:37:48;;;;;;;24.65;14.15;;;10.20;84.30;;;;;;5043737;28;20020;-82
2023/11/22 13:40:16;;;;;;;24.80;13.90;;;10.00;84.60;;;;;;5045299;28;20021;-83
2023/11/22 13:42:48;;;;;;;26.73;15.63;;;9.80;85.10;;;;;;5044317;28;20022;-81
2023/11/22 13:45:16;;;;;;;28.07;14.80;;;9.70;85.50;;;;;;5044167;28;20040;-83
2023/11/22 13:47:47;;;;;;;29.03;15.40;;;9.50;85.60;;;;;;5045235;28;20048;-83
2023/11/22 13:50:21;;;;;;;26.10;15.33;;;9.40;85.90;;;;;;5043134;28;20056;-83
2023/11/22 13:52:48;;;;;;;31.97;16.80;;;9.20;86.10;;;;;;5044781;28;20083;-81
2023/11/22 13:55:15;;;;;;;28.80;16.00;;;9.10;86.70;;;;;;5077136;28;20044;-84
2023/11/22 13:57:41;;;;;;;29.73;16.53;;;9.00;86.90;;;;;;5047910;28;20048;-83
2023/11/22 14:00:11;;;;;;;28.53;15.40;;;8.90;87.10;;;;;;5095952;28;20032;-82
2023/11/22 14:02:37;;;;;;;29.63;15.67;;;8.80;87.60;;;;;;5062900;28;20050;-81
2023/11/22 14:05:07;;;;;;;32.43;17.97;;;8.70;88.00;;;;;;5075557;28;20069;-83
2023/11/22 14:07:34;;;;;;;34.63;19.03;;;8.70;88.20;;;;;;5043342;28;20021;-82
2023/11/22 14:09:59;;;;;;;39.37;20.73;;;8.60;88.40;;;;;;5045113;28;20025;-82
2023/11/22 14:12:25;;;;;;;40.60;21.60;;;8.50;89.00;;;;;;5043896;28;20482;-82
2023/11/22 14:14:51;;;;;;;37.83;20.10;;;8.40;89.10;;;;;;5062333;28;20553;-81
2023/11/22 14:17:20;;;;;;;34.50;17.47;;;8.30;89.40;;;;;;5044593;28;20064;-82
2023/11/22 14:19:46;;;;;;;39.23;19.67;;;8.30;89.70;;;;;;5043557;28;20405;-83
2023/11/22 14:22:14;;;;;;;38.43;20.27;;;8.20;90.00;;;;;;5044865;28;20021;-82
2023/11/22 14:24:40;;;;;;;39.77;21.43;;;8.10;90.00;;;;;;5042934;28;20087;-82
2023/11/22 14:27:05;;;;;;;35.93;19.63;;;8.10;90.20;;;;;;5046564;28;20033;-81
2023/11/22 14:29:33;;;;;;;43.67;19.13;;;8.10;90.30;;;;;;5065382;28;20051;-81
2023/11/22 14:31:58;;;;;;;39.20;21.10;;;8.00;90.40;;;;;;5048474;28;20020;-82
2023/11/22 14:34:24;;;;;;;41.37;21.73;;;8.10;90.70;;;;;;5048213;28;20013;-81
2023/11/22 14:36:50;;;;;;;42.57;21.47;;;7.90;90.80;;;;;;5046992;28;20035;-82
2023/11/22 14:39:16;;;;;;;41.87;21.87;;;7.90;91.00;;;;;;5087200;28;20021;-82
2023/11/22 14:41:41;;;;;;;44.53;22.67;;;7.90;91.10;;;;;;5064729;28;20024;-81